Time;durP1;ratioP1;P1;durP2;ratioP2;P2;SDS_P1;SDS_P2;PMS_P1;PMS_P2;Temp;Humidity;BMP_temperature;BMP_pressure;BME280_temperature;BME280_humidity;BME280_pressure;Samples;Min_cycle;Max_cycle;Signal;HPM_P1;HPM_P2
2022/10/22 00:01:44;;;;;;;;;;;;;;;5.06;78.42;100430.66;5086024;28;1923;-76
2022/10/22 00:04:10;;;;;;;;;;;;;;;5.02;78.48;100432.88;5100269;27;1461;-79
2022/10/22 00:06:37;;;;;;;;;;;;;;;5.01;78.60;100421.38;5083706;28;1873;-76
2022/10/22 00:09:03;;;;;;;;;;;;;;;5.03;78.55;100434.56;5085483;28;3347;-77
2022/10/22 00:11:29;;;;;;;;;;;;;;;5.00;78.73;100425.06;5099569;27;1828;-79
2022/10/22 00:13:55;;;;;;;;;;;;;;;5.03;78.64;100426.53;5077769;27;2306;-79
2022/10/22 00:16:22;;;;;;;;;;;;;;;5.03;78.60;100428.34;5113825;27;1929;-77
2022/10/22 00:18:48;;;;;;;;;;;;;;;5.01;78.51;100434.72;5104586;27;1735;-80
2022/10/22 00:21:14;;;;;;;;;;;;;;;5.01;78.48;100425.88;5084787;28;1970;-79
2022/10/22 00:23:41;;;;;;;;;;;;;;;5.00;78.53;100425.06;5101509;28;1455;-78
2022/10/22 00:26:07;;;;;;;;;;;;;;;5.03;78.62;100420.34;5104677;28;1402;-80
2022/10/22 00:28:33;;;;;;;;;;;;;;;5.03;78.46;100420.34;5079049;28;1644;-76
2022/10/22 00:30:59;;;;;;;;;;;;;;;5.04;78.61;100416.69;5088383;28;1708;-79
2022/10/22 00:33:26;;;;;;;;;;;;;;;5.04;78.44;100417.50;5103349;28;1583;-76
2022/10/22 00:35:52;;;;;;;;;;;;;;;4.98;78.74;100411.06;5076259;28;1830;-78
2022/10/22 00:38:18;;;;;;;;;;;;;;;5.01;78.47;100416.03;5101586;28;2193;-78
2022/10/22 00:40:45;;;;;;;;;;;;;;;5.01;78.65;100409.88;5110591;28;1985;-77
2022/10/22 00:43:11;;;;;;;;;;;;;;;5.00;78.69;100409.06;5078734;28;2063;-77
2022/10/22 00:45:37;;;;;;;;;;;;;;;5.07;78.29;100400.28;5110776;28;3529;-80
2022/10/22 00:48:04;;;;;;;;;;;;;;;4.99;78.55;100396.69;5103031;28;3278;-78
2022/10/22 00:50:30;;;;;;;;;;;;;;;5.00;78.63;100392.22;5097386;28;1871;-78
2022/10/22 00:52:57;;;;;;;;;;;;;;;5.01;78.56;100393.84;5100010;28;2707;-78
2022/10/22 00:55:23;;;;;;;;;;;;;;;4.98;78.97;100395.06;5082239;28;1930;-76
2022/10/22 00:57:49;;;;;;;;;;;;;;;5.05;78.41;100399.66;5086267;27;1854;-79
2022/10/22 01:00:15;;;;;;;;;;;;;;;5.07;78.26;100398.44;5103289;27;1603;-77
2022/10/22 01:02:42;;;;;;;;;;;;;;;5.01;78.40;100389.34;5105516;27;1906;-76
2022/10/22 01:05:08;;;;;;;;;;;;;;;5.04;78.06;100390.00;5103854;27;2377;-79
2022/10/22 01:07:34;;;;;;;;;;;;;;;4.99;78.47;100391.38;5085878;28;1820;-76
2022/10/22 01:10:00;;;;;;;;;;;;;;;4.98;78.54;100386.22;5104863;27;1610;-77
2022/10/22 01:12:27;;;;;;;;;;;;;;;5.02;78.47;100387.50;5106594;27;1754;-81
2022/10/22 01:14:53;;;;;;;;;;;;;;;4.98;78.64;100384.38;5110050;27;1886;-79
2022/10/22 01:17:19;;;;;;;;;;;;;;;4.99;78.70;100390.53;5085499;28;1995;-77
2022/10/22 01:19:46;;;;;;;;;;;;;;;5.04;78.37;100392.66;5086841;28;1432;-76
2022/10/22 01:22:12;;;;;;;;;;;;;;;5.01;78.59;100392.00;5084240;27;1992;-77
2022/10/22 01:24:38;;;;;;;;;;;;;;;5.06;78.64;100385.28;5106412;27;1864;-77
2022/10/22 01:27:04;;;;;;;;;;;;;;;5.03;78.47;100381.16;5089231;27;2138;-79
2022/10/22 01:29:31;;;;;;;;;;;;;;;5.07;78.58;100382.44;5087531;27;1473;-78
2022/10/22 01:31:57;;;;;;;;;;;;;;;5.05;78.28;100375.63;5103163;27;1885;-77
2022/10/22 01:34:24;;;;;;;;;;;;;;;5.07;78.28;100371.75;5104012;27;1984;-76
2022/10/22 01:36:50;;;;;;;;;;;;;;;5.07;78.45;100370.94;5078546;28;1799;-77
2022/10/22 01:39:16;;;;;;;;;;;;;;;5.01;78.62;100367.16;5104228;27;1909;-77
2022/10/22 01:41:44;;;;;;;;;;;;;;;4.99;78.38;100372.69;5097479;28;1905;-77
2022/10/22 01:44:10;;;;;;;;;;;;;;;4.99;78.65;100369.19;5107310;27;1657;-78
2022/10/22 01:46:36;;;;;;;;;;;;;;;5.03;78.41;100370.50;5108177;27;1836;-78
2022/10/22 01:49:02;;;;;;;;;;;;;;;5.01;78.60;100372.50;5104729;27;1842;-78
2022/10/22 01:51:29;;;;;;;;;;;;;;;5.03;78.46;100369.63;5080023;27;1465;-79
2022/10/22 01:53:55;;;;;;;;;;;;;;;5.01;78.57;100364.50;5081916;28;1901;-79
2022/10/22 01:56:21;;;;;;;;;;;;;;;5.02;78.34;100363.47;5110560;27;1404;-80
2022/10/22 01:58:48;;;;;;;;;;;;;;;5.00;78.61;100365.53;5108625;27;1900;-77
2022/10/22 02:01:14;;;;;;;;;;;;;;;5.00;78.51;100352.19;5105569;27;1938;-78
2022/10/22 02:03:40;;;;;;;;;;;;;;;4.97;78.31;100361.38;5100104;27;1896;-79
2022/10/22 02:06:07;;;;;;;;;;;;;;;4.99;78.39;100350.50;5089349;28;1811;-79
2022/10/22 02:08:33;;;;;;;;;;;;;;;4.99;78.63;100355.84;5102170;27;4435;-78
2022/10/22 02:11:00;;;;;;;;;;;;;;;5.03;78.47;100361.63;5085531;27;3403;-76
2022/10/22 02:13:26;;;;;;;;;;;;;;;5.04;78.31;100357.97;5089109;28;3360;-79
2022/10/22 02:15:53;;;;;;;;;;;;;;;5.01;78.54;100356.50;5091976;27;1967;-78
2022/10/22 02:18:19;;;;;;;;;;;;;;;4.98;78.52;100356.88;5087209;28;1818;-76
2022/10/22 02:20:45;;;;;;;;;;;;;;;4.98;78.43;100355.03;5080537;27;1374;-77
2022/10/22 02:23:11;;;;;;;;;;;;;;;5.03;78.44;100345.59;5103190;27;1976;-78
2022/10/22 02:25:38;;;;;;;;;;;;;;;4.99;78.49;100343.31;5104460;27;3562;-79
2022/10/22 02:28:04;;;;;;;;;;;;;;;5.00;78.38;100345.00;5086204;27;1553;-77
2022/10/22 02:30:30;;;;;;;;;;;;;;;5.03;78.20;100340.28;5086185;28;2132;-80
2022/10/22 02:32:57;;;;;;;;;;;;;;;5.01;78.54;100343.97;5103207;27;1438;-77
2022/10/22 02:35:23;;;;;;;;;;;;;;;5.03;78.14;100338.44;5104921;27;1543;-77
2022/10/22 02:37:49;;;;;;;;;;;;;;;4.99;78.47;100332.63;5086345;28;2910;-79
2022/10/22 02:40:15;;;;;;;;;;;;;;;5.04;78.14;100333.94;5093806;27;1897;-79
2022/10/22 02:42:42;;;;;;;;;;;;;;;5.07;78.18;100334.38;5104911;27;2026;-77
2022/10/22 02:45:08;;;;;;;;;;;;;;;5.04;78.57;100339.28;5105186;27;1847;-75
2022/10/22 02:47:34;;;;;;;;;;;;;;;5.00;78.44;100328.97;5114506;27;1666;-76
2022/10/22 02:50:01;;;;;;;;;;;;;;;5.00;78.45;100320.16;5083558;27;1878;-80
2022/10/22 02:52:27;;;;;;;;;;;;;;;5.06;78.30;100330.06;5105265;27;1941;-77
2022/10/22 02:54:53;;;;;;;;;;;;;;;5.03;78.19;100326.91;5103091;27;1717;-77
2022/10/22 02:57:19;;;;;;;;;;;;;;;4.98;78.52;100325.66;5082078;28;1636;-77
2022/10/22 02:59:46;;;;;;;;;;;;;;;4.96;78.47;100329.53;5099215;27;1977;-79
2022/10/22 03:02:12;;;;;;;;;;;;;;;5.07;78.23;100329.03;5081290;27;2178;-76
2022/10/22 03:04:38;;;;;;;;;;;;;;;5.11;78.06;100322.28;5103807;27;1469;-77
2022/10/22 03:07:04;;;;;;;;;;;;;;;5.04;78.33;100326.75;5074750;28;3184;-79
2022/10/22 03:09:31;;;;;;;;;;;;;;;5.03;78.26;100324.25;5099413;27;1802;-76
2022/10/22 03:11:57;;;;;;;;;;;;;;;5.04;78.33;100321.41;5078060;27;1775;-78
2022/10/22 03:14:23;;;;;;;;;;;;;;;5.06;78.16;100323.88;5107148;27;1570;-80
2022/10/22 03:16:50;;;;;;;;;;;;;;;5.00;78.24;100315.63;5104727;27;1946;-77
2022/10/22 03:19:16;;;;;;;;;;;;;;;4.99;78.40;100313.97;5078220;27;1880;-78
2022/10/22 03:21:42;;;;;;;;;;;;;;;4.98;78.44;100312.31;5104287;27;1988;-76
2022/10/22 03:24:08;;;;;;;;;;;;;;;5.03;78.34;100310.91;5078435;28;1956;-77
2022/10/22 03:26:35;;;;;;;;;;;;;;;5.06;78.27;100313.19;5084599;28;1638;-79
2022/10/22 03:29:01;;;;;;;;;;;;;;;5.04;78.39;100316.06;5104695;27;1679;-75
2022/10/22 03:31:27;;;;;;;;;;;;;;;5.05;78.37;100316.88;5101176;27;1954;-78
2022/10/22 03:33:53;;;;;;;;;;;;;;;4.96;78.52;100310.84;5103887;27;1508;-81
2022/10/22 03:36:20;;;;;;;;;;;;;;;5.08;78.24;100314.66;5101707;27;1539;-79
2022/10/22 03:38:46;;;;;;;;;;;;;;;5.04;78.32;100312.59;5100238;27;1949;-80
2022/10/22 03:41:12;;;;;;;;;;;;;;;4.98;78.46;100301.63;5090755;27;1738;-77
2022/10/22 03:43:39;;;;;;;;;;;;;;;5.00;78.49;100296.94;5084197;27;3707;-77
2022/10/22 03:46:05;;;;;;;;;;;;;;;5.05;78.20;100307.03;5108874;27;2737;-80
2022/10/22 03:48:32;;;;;;;;;;;;;;;4.95;78.39;100302.00;5084066;27;2720;-79
2022/10/22 03:50:58;;;;;;;;;;;;;;;4.99;78.47;100305.13;5103940;27;1451;-79
2022/10/22 03:53:24;;;;;;;;;;;;;;;5.06;78.28;100305.19;5078658;28;2198;-80
2022/10/22 03:55:50;;;;;;;;;;;;;;;4.98;78.46;100298.97;5084570;28;2159;-80
2022/10/22 03:58:17;;;;;;;;;;;;;;;4.97;78.36;100308.00;5130073;22;3678;-80
2022/10/22 04:00:43;;;;;;;;;;;;;;;4.97;78.57;100308.00;5064526;28;2789;-79
2022/10/22 04:03:09;;;;;;;;;;;;;;;4.97;78.42;100308.00;5075160;28;1906;-79
2022/10/22 04:05:36;;;;;;;;;;;;;;;4.96;78.53;100308.19;5073864;28;1866;-79
2022/10/22 04:08:02;;;;;;;;;;;;;;;4.94;78.66;100305.72;5079400;28;1906;-79
2022/10/22 04:10:28;;;;;;;;;;;;;;;5.00;78.49;100304.94;5077065;28;2104;-80
2022/10/22 04:12:59;;;;;;;;;;;;;;;5.01;78.28;100306.59;5067982;28;1564;-78
2022/10/22 04:15:27;;;;;;;;;;;;;;;5.06;78.23;100307.84;5076209;28;1986;-78
2022/10/22 04:17:54;;;;;;;;;;;;;;;5.06;78.05;100311.38;5077277;28;1908;-78
2022/10/22 04:20:20;;;;;;;;;;;;;;;4.98;78.40;100306.97;5062101;28;1490;-78
2022/10/22 04:22:46;;;;;;;;;;;;;;;5.01;78.35;100319.94;5073915;28;1910;-79
2022/10/22 04:25:12;;;;;;;;;;;;;;;4.95;78.44;100304.69;5075244;28;1981;-79
2022/10/22 04:27:39;;;;;;;;;;;;;;;5.04;78.40;100302.72;5072835;28;1438;-80
2022/10/22 04:30:06;;;;;;;;;;;;;;;5.00;78.41;100296.94;5055156;28;1702;-78
2022/10/22 04:32:32;;;;;;;;;;;;;;;4.96;78.47;100301.00;5085237;28;1651;-78
2022/10/22 04:34:59;;;;;;;;;;;;;;;5.03;78.24;100290.41;5064161;28;1538;-79
2022/10/22 04:37:25;;;;;;;;;;;;;;;4.98;78.29;100287.47;5079122;28;4254;-79
2022/10/22 04:39:51;;;;;;;;;;;;;;;4.95;78.40;100287.84;5063117;28;4220;-80
2022/10/22 04:42:17;;;;;;;;;;;;;;;4.95;78.45;100286.00;5084720;28;1957;-78
2022/10/22 04:44:44;;;;;;;;;;;;;;;4.95;78.64;100285.19;5081087;28;3462;-78
2022/10/22 04:47:10;;;;;;;;;;;;;;;5.00;78.34;100280.09;5081843;28;1889;-79
2022/10/22 04:49:36;;;;;;;;;;;;;;;4.95;78.39;100283.34;5076627;28;1545;-79
2022/10/22 04:52:03;;;;;;;;;;;;;;;4.94;78.76;100287.03;5061427;28;1636;-79
2022/10/22 04:54:29;;;;;;;;;;;;;;;4.93;78.58;100282.69;5081917;28;1902;-79
2022/10/22 04:56:55;;;;;;;;;;;;;;;4.97;78.37;100280.47;5079984;28;3509;-78
2022/10/22 04:59:22;;;;;;;;;;;;;;;4.95;78.80;100272.66;5079974;28;1799;-78
2022/10/22 05:01:48;;;;;;;;;;;;;;;5.00;78.39;100274.78;5082951;28;1605;-78
2022/10/22 05:04:14;;;;;;;;;;;;;;;4.98;78.30;100274.94;5060079;28;1977;-78
2022/10/22 05:06:41;;;;;;;;;;;;;;;4.94;78.63;100272.84;5077437;28;1905;-78
2022/10/22 05:09:07;;;;;;;;;;;;;;;5.01;78.31;100268.41;5081815;28;2853;-78
2022/10/22 05:11:33;;;;;;;;;;;;;;;4.96;78.43;100273.47;5082076;28;1840;-79
2022/10/22 05:13:59;;;;;;;;;;;;;;;4.99;78.34;100273.09;5082796;28;1793;-78
2022/10/22 05:16:26;;;;;;;;;;;;;;;4.94;78.55;100272.84;5096463;28;1851;-78
2022/10/22 05:18:52;;;;;;;;;;;;;;;4.97;78.50;100272.44;5097775;28;1076;-79
2022/10/22 05:21:18;;;;;;;;;;;;;;;4.94;78.52;100276.34;5097999;28;1119;-78
2022/10/22 05:23:45;;;;;;;;;;;;;;;4.97;78.37;100283.97;5069774;28;2018;-78
2022/10/22 05:26:11;;;;;;;;;;;;;;;4.99;78.30;100281.94;5086047;28;1874;-79
2022/10/22 05:28:37;;;;;;;;;;;;;;;4.95;78.50;100282.50;5094755;28;1958;-79
2022/10/22 05:31:03;;;;;;;;;;;;;;;4.97;78.31;100283.97;5072467;28;1960;-79
2022/10/22 05:33:30;;;;;;;;;;;;;;;5.03;78.16;100285.06;5078571;28;1215;-79
2022/10/22 05:35:56;;;;;;;;;;;;;;;5.01;78.23;100284.41;5096304;28;1636;-79
2022/10/22 05:38:22;;;;;;;;;;;;;;;5.03;78.30;100284.22;5073997;28;1964;-78
2022/10/22 05:40:48;;;;;;;;;;;;;;;4.94;78.45;100284.34;5097519;28;1087;-78
2022/10/22 05:43:15;;;;;;;;;;;;;;;4.98;78.36;100282.13;5079254;28;1910;-79
2022/10/22 05:45:41;;;;;;;;;;;;;;;5.01;78.22;100287.09;5092702;28;1995;-78
2022/10/22 05:48:08;;;;;;;;;;;;;;;5.00;78.33;100280.09;5095849;28;1451;-78
2022/10/22 05:50:34;;;;;;;;;;;;;;;4.97;78.50;100275.97;5076909;28;1329;-81
2022/10/22 05:53:01;;;;;;;;;;;;;;;4.94;78.53;100280.84;5096042;28;2025;-79
2022/10/22 05:55:27;;;;;;;;;;;;;;;4.97;78.42;100275.97;5065542;28;2028;-77
2022/10/22 05:57:53;;;;;;;;;;;;;;;4.97;78.48;100281.31;5096626;28;1440;-77
2022/10/22 06:00:19;;;;;;;;;;;;;;;4.99;78.38;100275.75;5075621;28;1939;-78
2022/10/22 06:02:46;;;;;;;;;;;;;;;4.97;78.56;100273.31;5077641;28;2372;-77
2022/10/22 06:05:12;;;;;;;;;;;;;;;5.01;78.28;100277.22;5096402;28;1194;-77
2022/10/22 06:07:38;;;;;;;;;;;;;;;4.94;78.31;100271.00;5094721;28;1822;-77
2022/10/22 06:10:05;;;;;;;;;;;;;;;4.95;78.50;100275.31;5090609;28;1903;-78
2022/10/22 06:12:31;;;;;;;;;;;;;;;4.97;78.20;100273.31;5079058;28;1831;-78
2022/10/22 06:14:57;;;;;;;;;;;;;;;4.99;78.34;100281.94;5094909;28;1931;-77
2022/10/22 06:17:23;;;;;;;;;;;;;;;4.98;78.43;100285.63;5076655;28;1876;-78
2022/10/22 06:19:50;;;;;;;;;;;;;;;5.00;78.29;100286.28;5097025;28;1238;-77
2022/10/22 06:22:16;;;;;;;;;;;;;;;4.99;77.98;100292.59;5096550;28;1973;-80
2022/10/22 06:24:42;;;;;;;;;;;;;;;4.97;78.38;100283.97;5070490;28;1940;-77
2022/10/22 06:27:09;;;;;;;;;;;;;;;4.96;78.56;100284.16;5076085;28;1793;-77
2022/10/22 06:29:36;;;;;;;;;;;;;;;4.97;78.58;100283.97;5077210;28;1977;-77
2022/10/22 06:32:02;;;;;;;;;;;;;;;4.96;78.35;100282.31;5078056;28;1882;-78
2022/10/22 06:34:29;;;;;;;;;;;;;;;4.99;78.42;100287.25;5077907;28;2050;-77
2022/10/22 06:36:55;;;;;;;;;;;;;;;5.01;78.27;100282.56;5095813;28;1819;-76
2022/10/22 06:39:22;;;;;;;;;;;;;;;5.04;78.21;100281.38;5077544;28;1968;-77
2022/10/22 06:41:48;;;;;;;;;;;;;;;5.00;78.19;100286.28;5096251;28;1120;-78
2022/10/22 06:44:15;;;;;;;;;;;;;;;5.02;78.29;100294.06;5075912;28;1982;-79
2022/10/22 06:46:41;;;;;;;;;;;;;;;5.04;78.20;100293.91;5073724;28;1548;-78
2022/10/22 06:49:08;;;;;;;;;;;;;;;5.00;78.26;100301.47;5082766;28;4495;-78
2022/10/22 06:51:34;;;;;;;;;;;;;;;5.04;78.03;100299.22;5085121;28;1686;-78
2022/10/22 06:54:00;;;;;;;;;;;;;;;4.98;78.26;100300.81;5093743;28;1773;-78
2022/10/22 06:56:27;;;;;;;;;;;;;;;4.98;78.41;100301.63;5095263;28;1854;-79
2022/10/22 06:58:53;;;;;;;;;;;;;;;4.93;78.40;100301.38;5094686;28;1850;-78
2022/10/22 07:01:19;;;;;;;;;;;;;;;4.95;78.43;100303.88;5084338;28;4523;-79
2022/10/22 07:03:46;;;;;;;;;;;;;;;4.97;78.33;100310.66;5056615;28;4243;-79
2022/10/22 07:06:12;;;;;;;;;;;;;;;4.97;78.40;100305.34;5074772;28;1878;-80
2022/10/22 07:08:38;;;;;;;;;;;;;;;4.92;78.67;100305.06;5063826;28;1798;-79
2022/10/22 07:11:05;;;;;;;;;;;;;;;4.94;78.64;100297.72;5076960;28;3190;-80
2022/10/22 07:13:31;;;;;;;;;;;;;;;4.90;78.67;100296.41;5075106;28;3276;-78
2022/10/22 07:15:57;;;;;;;;;;;;;;;4.97;78.37;100302.66;5073784;28;1478;-80
2022/10/22 07:18:23;;;;;;;;;;;;;;;4.90;78.62;100303.59;5075086;28;2502;-80
2022/10/22 07:20:50;;;;;;;;;;;;;;;4.89;78.60;100310.78;5076650;28;1584;-79
2022/10/22 07:23:16;;;;;;;;;;;;;;;4.93;78.52;100312.03;5077238;28;1906;-78
2022/10/22 07:25:42;;;;;;;;;;;;;;;4.89;78.76;100309.97;5064645;28;1828;-79
2022/10/22 07:28:09;;;;;;;;;;;;;;;4.98;78.44;100306.16;5077983;28;1541;-77
2022/10/22 07:30:35;;;;;;;;;;;;;;;4.92;78.72;100309.59;5074281;28;2433;-78
2022/10/22 07:33:01;;;;;;;;;;;;;;;4.90;78.64;100307.09;5079724;28;1881;-79
2022/10/22 07:35:31;;;;;;;;;;;;;;;4.88;78.66;100306.47;5094390;28;1820;-79
2022/10/22 07:37:57;;;;;;;;;;;;;;;4.89;78.67;100309.97;5094601;28;1870;-79
2022/10/22 07:40:23;;;;;;;;;;;;;;;4.96;78.40;100303.66;5095038;28;1225;-79
2022/10/22 07:42:49;;;;;;;;;;;;;;;4.90;78.58;100301.75;5076246;28;1911;-79
2022/10/22 07:45:16;;;;;;;;;;;;;;;4.91;78.28;100303.41;5075768;28;1887;-79
2022/10/22 07:47:42;;;;;;;;;;;;;;;4.90;78.56;100306.25;5095128;28;1147;-79
2022/10/22 07:50:08;;;;;;;;;;;;;;;4.90;78.60;100296.41;5077186;28;1147;-78
2022/10/22 07:52:35;;;;;;;;;;;;;;;4.92;78.51;100299.72;5075931;28;1862;-79
2022/10/22 07:55:01;;;;;;;;;;;;;;;5.08;78.00;100301.31;5076597;28;1176;-79
2022/10/22 07:57:27;;;;;;;;;;;;;;;4.92;78.38;100294.38;5092468;28;1485;-77
2022/10/22 07:59:55;;;;;;;;;;;;;;;4.91;78.50;100303.41;5085492;28;1893;-77
2022/10/22 08:02:21;;;;;;;;;;;;;;;4.93;78.46;100306.72;5073461;28;1831;-77
2022/10/22 08:04:47;;;;;;;;;;;;;;;4.94;78.22;100305.72;5083648;28;1926;-77
2022/10/22 08:07:14;;;;;;;;;;;;;;;4.92;78.44;100305.06;5075883;28;1248;-78
2022/10/22 08:09:40;;;;;;;;;;;;;;;4.92;78.67;100312.25;5076286;28;1188;-78
2022/10/22 08:12:06;;;;;;;;;;;;;;;4.95;78.22;100315.34;5094716;28;1511;-78
2022/10/22 08:14:32;;;;;;;;;;;;;;;4.97;78.20;100312.47;5080755;28;1984;-78
2022/10/22 08:16:59;;;;;;;;;;;;;;;4.96;78.36;100310.84;5090499;28;1999;-78
2022/10/22 08:19:25;;;;;;;;;;;;;;;4.94;78.30;100318.19;5075423;28;1988;-78
2022/10/22 08:21:51;;;;;;;;;;;;;;;4.99;78.24;100318.47;5085201;28;1475;-79
2022/10/22 08:24:17;;;;;;;;;;;;;;;4.93;78.16;100314.72;5089079;28;1993;-77
2022/10/22 08:26:44;;;;;;;;;;;;;;;4.92;78.36;100321.06;5089268;28;1660;-78
2022/10/22 08:29:10;;;;;;;;;;;;;;;4.96;78.32;100313.50;5071368;28;1810;-78
2022/10/22 08:31:36;;;;;;;;;;;;;;;4.93;78.36;100312.03;5083979;28;1729;-77
2022/10/22 08:34:04;;;;;;;;;;;;;;;5.05;77.97;100311.56;5067107;28;2358;-79
2022/10/22 08:36:30;;;;;;;;;;;;;;;5.07;77.97;100304.19;5060580;28;1949;-77
2022/10/22 08:38:56;;;;;;;;;;;;;;;5.03;78.02;100297.56;5066660;28;1389;-78
2022/10/22 08:41:23;;;;;;;;;;;;;;;4.97;78.10;100297.31;5087423;28;1852;-77
2022/10/22 08:43:49;;;;;;;;;;;;;;;4.97;78.23;100304.47;5072272;28;1906;-77
2022/10/22 08:46:15;;;;;;;;;;;;;;;5.05;77.80;100304.38;5070568;28;3311;-78
2022/10/22 08:48:42;;;;;;;;;;;;;;;5.00;78.02;100310.28;5070669;28;1775;-77
2022/10/22 08:51:08;;;;;;;;;;;;;;;4.99;78.07;100307.78;5087798;28;1559;-79
2022/10/22 08:53:34;;;;;;;;;;;;;;;5.07;78.07;100309.53;5068126;28;1692;-78
2022/10/22 08:56:01;;;;;;;;;;;;;;;5.10;77.86;100301.16;5088589;28;1855;-77
2022/10/22 08:58:27;;;;;;;;;;;;;;;4.99;78.18;100303.28;5086943;28;1576;-78
2022/10/22 09:00:53;;;;;;;;;;;;;;;4.98;78.20;100292.81;5071387;28;1715;-78
2022/10/22 09:03:19;;;;;;;;;;;;;;;5.05;77.75;100299.03;5075884;28;5168;-78
2022/10/22 09:05:46;;;;;;;;;;;;;;;5.13;77.55;100296.25;5071112;28;3771;-77
2022/10/22 09:08:12;;;;;;;;;;;;;;;5.09;77.85;100300.31;5069152;28;1670;-77
2022/10/22 09:10:38;;;;;;;;;;;;;;;5.07;77.81;100307.69;5074380;28;1725;-77
2022/10/22 09:13:04;;;;;;;;;;;;;;;5.00;77.98;100304.94;5072547;28;1710;-78
2022/10/22 09:15:31;;;;;;;;;;;;;;;5.04;77.77;100301.91;5069935;28;1443;-78
2022/10/22 09:17:57;;;;;;;;;;;;;;;5.06;78.05;100307.84;5085807;28;2010;-77
2022/10/22 09:20:25;;;;;;;;;;;;;;;5.03;77.79;100293.06;5075455;28;4049;-77
2022/10/22 09:22:51;;;;;;;;;;;;;;;4.99;78.01;100297.13;5089564;28;1575;-77
2022/10/22 09:25:18;;;;;;;;;;;;;;;4.98;78.11;100290.13;5092166;28;1983;-77
2022/10/22 09:27:44;;;;;;;;;;;;;;;5.06;77.77;100292.69;5073879;28;1483;-79
2022/10/22 09:30:10;;;;;;;;;;;;;;;5.00;78.07;100296.94;5091517;28;1732;-79
2022/10/22 09:32:36;;;;;;;;;;;;;;;5.02;78.02;100291.41;5085013;28;2812;-79
2022/10/22 09:35:03;;;;;;;;;;;;;;;4.99;78.22;100294.44;5091068;28;2094;-79
2022/10/22 09:37:29;;;;;;;;;;;;;;;5.06;77.97;100291.84;5097049;28;1452;-78
2022/10/22 09:39:55;;;;;;;;;;;;;;;5.01;78.11;100303.94;5093536;28;1821;-79
2022/10/22 09:42:22;;;;;;;;;;;;;;;4.97;78.21;100294.66;5075790;28;1928;-78
2022/10/22 09:44:48;;;;;;;;;;;;;;;5.04;77.91;100297.38;5090448;28;2015;-79
2022/10/22 09:47:14;;;;;;;;;;;;;;;5.05;78.09;100295.53;5089922;28;1677;-78
2022/10/22 09:49:41;;;;;;;;;;;;;;;5.06;77.78;100292.69;5088995;28;1484;-79
2022/10/22 09:52:11;;;;;;;;;;;;;;;5.00;78.23;100299.63;5091647;28;1698;-78
2022/10/22 09:54:38;;;;;;;;;;;;;;;4.95;78.33;100294.00;5093393;28;1577;-77
2022/10/22 09:57:04;;;;;;;;;;;;;;;5.00;78.25;100296.13;5092546;28;2041;-79
2022/10/22 09:59:30;;;;;;;;;;;;;;;4.96;78.40;100294.84;5094120;28;1432;-79
2022/10/22 10:01:57;;;;;;;;;;;;;;;5.00;78.21;100288.13;5089906;28;1382;-78
2022/10/22 10:04:23;;;;;;;;;;;;;;;5.03;78.44;100284.22;5066370;28;2007;-78
2022/10/22 10:06:49;;;;;;;;;;;;;;;5.08;77.85;100284.47;5090430;28;1935;-78
2022/10/22 10:09:16;;;;;;;;;;;;;;;5.08;78.02;100277.28;5068674;28;1694;-79
2022/10/22 10:11:42;;;;;;;;;;;;;;;5.15;77.80;100283.53;5096806;28;1660;-78
2022/10/22 10:14:08;;;;;;;;;;;;;;;5.03;78.05;100285.06;5094421;28;2060;-78
2022/10/22 10:16:35;;;;;;;;;;;;;;;5.00;78.21;100272.91;5095191;28;1947;-79
2022/10/22 10:19:01;;;;;;;;;;;;;;;4.98;78.34;100282.94;5095263;28;1863;-78
2022/10/22 10:21:27;;;;;;;;;;;;;;;5.14;77.98;100279.19;5087204;28;1983;-77
2022/10/22 10:23:53;;;;;;;;;;;;;;;5.06;78.11;100287.34;5077233;28;2011;-78
2022/10/22 10:26:20;;;;;;;;;;;;;;;5.09;77.95;100276.28;5077894;28;1526;-80
2022/10/22 10:28:46;;;;;;;;;;;;;;;5.14;77.88;100279.19;5096474;28;1194;-77
2022/10/22 10:31:12;;;;;;;;;;;;;;;5.10;77.88;100280.59;5093665;28;1689;-79
2022/10/22 10:33:39;;;;;;;;;;;;;;;5.03;78.17;100287.72;5089158;28;1617;-79
2022/10/22 10:36:05;;;;;;;;;;;;;;;5.08;78.30;100289.81;5092360;28;1590;-77
2022/10/22 10:38:31;;;;;;;;;;;;;;;5.03;78.37;100277.06;5079592;28;2372;-78
2022/10/22 10:40:58;;;;;;;;;;;;;;;5.04;78.27;100285.88;5076004;28;1781;-77
2022/10/22 10:43:24;;;;;;;;;;;;;;;5.06;78.36;100291.84;5091474;28;1902;-79
2022/10/22 10:45:50;;;;;;;;;;;;;;;5.04;78.29;100294.72;5091871;28;3811;-78
2022/10/22 10:48:17;;;;;;;;;;;;;;;5.01;78.35;100290.59;5092564;28;4002;-78
2022/10/22 10:50:43;;;;;;;;;;;;;;;5.06;78.30;100291.84;5078095;28;1206;-78
2022/10/22 10:53:09;;;;;;;;;;;;;;;5.05;78.26;100285.69;5073299;28;2747;-78
2022/10/22 10:55:36;;;;;;;;;;;;;;;5.05;78.38;100283.00;5075363;28;1844;-79
2022/10/22 10:58:02;;;;;;;;;;;;;;;5.05;78.28;100285.69;5076518;28;1569;-80
2022/10/22 11:00:28;;;;;;;;;;;;;;;5.10;78.22;100271.78;5095362;28;1683;-79
2022/10/22 11:02:54;;;;;;;;;;;;;;;5.07;78.22;100277.50;5092057;28;1741;-78
2022/10/22 11:05:21;;;;;;;;;;;;;;;5.12;78.15;100278.59;5089796;28;2790;-77
2022/10/22 11:07:47;;;;;;;;;;;;;;;5.11;78.26;100270.75;5089054;28;1702;-77
2022/10/22 11:10:13;;;;;;;;;;;;;;;5.08;78.20;100282.63;5074136;28;1626;-77
2022/10/22 11:12:39;;;;;;;;;;;;;;;5.09;78.38;100278.97;5074963;28;1540;-78
2022/10/22 11:15:06;;;;;;;;;;;;;;;5.07;78.30;100286.31;5063391;28;1984;-79
2022/10/22 11:17:32;;;;;;;;;;;;;;;5.07;78.29;100275.66;5070266;28;1952;-78
2022/10/22 11:19:58;;;;;;;;;;;;;;;5.08;78.34;100285.31;5079685;28;1527;-80
2022/10/22 11:22:25;;;;;;;;;;;;;;;5.09;78.35;100275.44;5072388;28;1478;-78
2022/10/22 11:24:51;;;;;;;;;;;;;;;5.09;78.34;100273.63;5069038;28;1994;-79
2022/10/22 11:27:17;;;;;;;;;;;;;;;5.11;78.31;100271.56;5091365;28;1467;-79
2022/10/22 11:29:44;;;;;;;;;;;;;;;5.11;78.45;100270.75;5092443;28;1544;-78
2022/10/22 11:32:10;;;;;;;;;;;;;;;5.11;78.39;100281.44;5089274;28;1733;-79
2022/10/22 11:34:36;;;;;;;;;;;;;;;5.11;78.50;100270.75;5085417;28;4533;-78
2022/10/22 11:37:03;;;;;;;;;;;;;;;5.11;78.30;100270.75;5090179;28;1888;-80
2022/10/22 11:39:30;;;;;;;;;;;;;;;5.11;78.51;100268.91;5086397;28;3617;-78
2022/10/22 11:41:56;;;;;;;;;;;;;;;5.13;78.30;100271.41;5071339;28;1692;-79
2022/10/22 11:44:24;;;;;;;;;;;;;;;5.15;78.52;100274.72;5090929;28;1906;-79
2022/10/22 11:46:51;;;;;;;;;;;;;;;5.16;78.32;100274.50;5088396;28;1777;-78
2022/10/22 11:49:17;;;;;;;;;;;;;;;5.14;78.51;100267.69;5090108;28;1616;-78
2022/10/22 11:51:43;;;;;;;;;;;;;;;5.14;78.53;100263.19;5090304;28;3446;-79
2022/10/22 11:54:09;;;;;;;;;;;;;;;5.15;78.41;100266.69;5067929;28;2075;-79
2022/10/22 11:56:38;;;;;;;;;;;;;;;5.14;78.46;100263.19;5086592;28;1903;-78
2022/10/22 11:59:05;;;;;;;;;;;;;;;5.21;78.12;100266.75;5091940;28;1658;-78
2022/10/22 12:01:31;;;;;;;;;;;;;;;5.22;78.33;100259.56;5087745;28;1961;-78
2022/10/22 12:03:57;;;;;;;;;;;;;;;5.18;78.46;100258.31;5085152;28;2820;-78
2022/10/22 12:06:23;;;;;;;;;;;;;;;5.18;78.38;100247.63;5085092;28;1580;-78
2022/10/22 12:08:50;;;;;;;;;;;;;;;5.19;78.37;100247.41;5087318;28;1923;-80
2022/10/22 12:11:16;;;;;;;;;;;;;;;5.21;78.32;100250.72;5089124;28;1741;-79
2022/10/22 12:13:42;;;;;;;;;;;;;;;5.20;78.41;100245.56;5081876;28;2711;-78
2022/10/22 12:16:09;;;;;;;;;;;;;;;5.24;78.23;100246.84;5070559;28;1964;-78
2022/10/22 12:18:35;;;;;;;;;;;;;;;5.30;78.08;100248.75;5089189;28;1511;-77
2022/10/22 12:21:01;;;;;;;;;;;;;;;5.27;78.25;100254.47;5088960;28;1615;-78
2022/10/22 12:23:28;;;;;;;;;;;;;;;5.28;78.16;100247.28;5087826;28;1796;-78
2022/10/22 12:25:54;;;;;;;;;;;;;;;5.31;78.06;100242.38;5088779;28;1972;-78
2022/10/22 12:28:20;;;;;;;;;;;;;;;5.29;78.31;100241.75;5081149;28;1418;-78
2022/10/22 12:30:46;;;;;;;;;;;;;;;5.31;78.23;100236.22;5079456;28;1678;-78
2022/10/22 12:33:13;;;;;;;;;;;;;;;5.31;78.13;100242.38;5068709;28;1421;-78
2022/10/22 12:35:39;;;;;;;;;;;;;;;5.30;78.33;100240.75;5071067;28;1932;-78
2022/10/22 12:38:05;;;;;;;;;;;;;;;5.30;78.30;100235.41;5091043;28;1693;-78
2022/10/22 12:40:31;;;;;;;;;;;;;;;5.32;78.13;100236.00;5087555;28;1994;-78
2022/10/22 12:42:58;;;;;;;;;;;;;;;5.31;78.13;100229.03;5073303;28;2538;-78
2022/10/22 12:45:24;;;;;;;;;;;;;;;5.30;78.33;100219.38;5068386;28;1906;-78
2022/10/22 12:47:50;;;;;;;;;;;;;;;5.29;78.44;100225.72;5068841;28;1765;-78
2022/10/22 12:50:17;;;;;;;;;;;;;;;5.31;78.19;100220.19;5074277;28;1702;-80
2022/10/22 12:52:43;;;;;;;;;;;;;;;5.30;78.46;100216.72;5070251;28;1800;-79